Hlavní strana
METAR-TAF:

METAR-TAF

Letiště :

Pärnu, Estonsko

zeměpisná šířka: 58-25-09N, zeměpisná délka: 024-28-22E, výška: 14 m

Aktuální stav počasí

Zpráva byla vytvořena před 11 hodinami a 16 minutami, v 12:50 UTC
Jihojihozápadní vítr 5 kt, proměnlivý mezi východojihovýchodním a západním
Teplota 20°C
Vlhkost vzduchu 46%
Tlak 1022 hPa
Viditelnost 10 km a více
Žádná oblačnost pod 1500 m, nevyskytují se cumulonimby.

METAR: EEPU 251250Z 21005KT 120V270 CAVOK 20/08 Q1022

Čas: 03:06 (00:06 UTC)


TAF: chybějící

Stav a předpovědi počasí z více než 4 000 letišť (zprávy METAR a TAF).

Červené a žluté tečky na mapě představují dostupné meteorologické stanice.

Když kurzor umístíte na tečku, zobrazí se název stanice.

Pak kliknutím zobrazíte stav a předpověď počasí.

Chcete-li změnit mapu, kliknutím na zelené tlačítko se znaménkem +mapu přiblížíte, kliknutím na zelené tlačítko se znaménkem – mapu oddálíte a kliknutím na zelené šipky přejdete na sousední mapy.


METAR-TAF: